createdAt,value
2018-12-02T00:01:03.202Z,1.20
2018-12-02T00:03:32.926Z,2.40
2018-12-02T00:06:02.385Z,1.70
2018-12-02T00:08:31.848Z,1.20
2018-12-02T00:11:01.308Z,1.90
2018-12-02T00:13:30.793Z,1.60
2018-12-02T00:16:00.276Z,1.27
2018-12-02T00:18:30.074Z,1.30
2018-12-02T00:20:59.676Z,1.50
2018-12-02T00:23:29.467Z,1.10
2018-12-02T00:25:59.008Z,1.20
2018-12-02T00:28:28.923Z,1.63
2018-12-02T00:30:58.707Z,1.57
2018-12-02T00:33:28.208Z,1.30
2018-12-02T00:35:57.895Z,1.63
2018-12-02T00:38:27.558Z,1.10
2018-12-02T00:40:57.212Z,1.20
2018-12-02T00:43:26.905Z,1.97
2018-12-02T00:45:56.838Z,1.33
2018-12-02T00:48:26.300Z,1.30
2018-12-02T00:50:55.740Z,1.20
2018-12-02T00:53:25.291Z,1.13
2018-12-02T00:56:02.315Z,1.23
2018-12-02T00:58:32.089Z,1.40
2018-12-02T01:01:01.615Z,1.10
2018-12-02T01:03:31.422Z,1.10
2018-12-02T01:06:00.990Z,1.10
2018-12-02T01:08:31.417Z,1.20
2018-12-02T01:11:01.298Z,1.80
2018-12-02T01:13:31.041Z,1.10
2018-12-02T01:16:02.218Z,1.20
2018-12-02T01:18:32.231Z,1.33
2018-12-02T01:21:01.750Z,1.20
2018-12-02T01:23:31.419Z,1.37
2018-12-02T01:26:01.432Z,1.20
2018-12-02T01:28:30.967Z,1.40
2018-12-02T01:31:00.546Z,1.10
2018-12-02T01:33:30.390Z,1.40
2018-12-02T01:36:00.176Z,1.20
2018-12-02T01:38:29.776Z,1.20
2018-12-02T01:40:59.584Z,1.30
2018-12-02T01:43:29.301Z,1.10
2018-12-02T01:45:58.962Z,1.33
2018-12-02T01:48:28.472Z,1.30
2018-12-02T01:50:57.973Z,1.17
2018-12-02T01:53:27.624Z,1.67
2018-12-02T01:55:57.314Z,1.20
2018-12-02T01:58:26.769Z,1.17
2018-12-02T02:00:56.218Z,1.13
2018-12-02T02:03:25.870Z,1.23
2018-12-02T02:05:55.346Z,1.30
2018-12-02T02:08:24.850Z,1.10
2018-12-02T02:10:54.474Z,1.50
2018-12-02T02:13:23.960Z,1.33
2018-12-02T02:15:53.392Z,1.30
2018-12-02T02:18:22.889Z,1.20
2018-12-02T02:20:52.422Z,1.47
2018-12-02T02:23:21.914Z,1.40
2018-12-02T02:25:51.421Z,1.20
2018-12-02T02:28:20.886Z,1.10
2018-12-02T02:30:50.453Z,1.10
2018-12-02T02:33:20.225Z,1.20
2018-12-02T02:35:49.713Z,1.10
2018-12-02T02:38:19.249Z,1.17
2018-12-02T02:40:48.828Z,1.10
2018-12-02T02:43:18.316Z,1.20
2018-12-02T02:45:47.789Z,1.10
2018-12-02T02:48:18.229Z,1.10
2018-12-02T02:50:47.738Z,1.10
2018-12-02T02:53:17.425Z,1.10
2018-12-02T02:55:47.042Z,1.20
2018-12-02T02:58:16.581Z,1.10
2018-12-02T03:00:46.063Z,1.30
2018-12-02T03:03:15.533Z,1.03
2018-12-02T03:05:44.994Z,1.13
2018-12-02T03:08:14.449Z,1.20
2018-12-02T03:10:44.123Z,1.20
2018-12-02T03:13:13.707Z,1.00
2018-12-02T03:15:43.159Z,1.53
2018-12-02T03:18:13.148Z,1.20
2018-12-02T03:20:42.928Z,1.30
2018-12-02T03:23:13.003Z,1.03
2018-12-02T03:25:42.466Z,1.00
2018-12-02T03:28:12.089Z,1.00
2018-12-02T03:30:41.569Z,1.73
2018-12-02T03:33:11.064Z,1.10
2018-12-02T03:35:40.518Z,1.00
2018-12-02T03:38:10.031Z,2.23
2018-12-02T03:40:39.497Z,1.27
2018-12-02T03:43:08.961Z,1.10
2018-12-02T03:45:38.430Z,1.30
2018-12-02T03:48:07.956Z,1.00
2018-12-02T03:50:37.622Z,1.07
2018-12-02T03:53:07.613Z,1.00
2018-12-02T03:55:37.177Z,1.10
2018-12-02T03:58:07.433Z,1.00
2018-12-02T04:00:37.008Z,1.20
2018-12-02T04:03:06.476Z,1.00
2018-12-02T04:05:36.016Z,1.00
2018-12-02T04:08:06.026Z,0.93
2018-12-02T04:10:35.535Z,1.10
2018-12-02T04:13:05.391Z,1.20
2018-12-02T04:15:35.576Z,1.03
2018-12-02T04:18:05.680Z,1.10
2018-12-02T04:20:35.116Z,1.00
2018-12-02T04:23:04.618Z,1.10
2018-12-02T04:25:34.041Z,1.10
2018-12-02T04:28:03.512Z,1.00
2018-12-02T04:30:32.969Z,1.10
2018-12-02T04:33:02.569Z,1.00
2018-12-02T04:35:32.039Z,1.10
2018-12-02T04:38:01.554Z,1.00
2018-12-02T04:40:31.004Z,1.10
2018-12-02T04:43:00.491Z,1.03
2018-12-02T04:45:29.907Z,1.00
2018-12-02T04:47:59.364Z,1.80
2018-12-02T04:50:28.917Z,1.20
2018-12-02T04:52:58.731Z,1.40
2018-12-02T04:55:28.377Z,1.00
2018-12-02T04:57:57.849Z,1.20
2018-12-02T05:00:27.483Z,1.00
2018-12-02T05:02:56.935Z,1.10
2018-12-02T05:05:26.372Z,1.00
2018-12-02T05:07:55.803Z,1.10
2018-12-02T05:10:25.301Z,1.10
2018-12-02T05:12:54.891Z,1.00
2018-12-02T05:15:24.360Z,1.00
2018-12-02T05:17:53.833Z,1.00
2018-12-02T05:20:23.587Z,1.00
2018-12-02T05:22:53.429Z,1.10
2018-12-02T05:25:22.946Z,1.00
2018-12-02T05:27:52.616Z,1.00
2018-12-02T05:30:23.148Z,1.50
2018-12-02T05:32:54.341Z,1.03
2018-12-02T05:35:23.950Z,1.20
2018-12-02T05:37:53.607Z,1.10
2018-12-02T05:40:24.105Z,1.30
2018-12-02T05:42:54.310Z,1.00
2018-12-02T05:45:23.999Z,1.00
2018-12-02T05:47:53.443Z,1.00
2018-12-02T05:50:25.218Z,1.13
2018-12-02T05:52:56.779Z,1.00
2018-12-02T05:55:31.531Z,1.00
2018-12-02T05:58:01.119Z,1.20
2018-12-02T06:00:30.728Z,1.10
2018-12-02T06:03:00.180Z,0.93
2018-12-02T06:05:29.672Z,1.20
2018-12-02T06:07:59.120Z,1.00
2018-12-02T06:11:31.596Z,1.00
2018-12-02T06:14:01.162Z,1.10
2018-12-02T06:16:30.684Z,1.00
2018-12-02T06:19:00.184Z,1.30
2018-12-02T06:21:29.662Z,1.00
2018-12-02T06:23:59.260Z,0.90
2018-12-02T06:26:28.743Z,1.70
2018-12-02T06:28:58.348Z,1.20
2018-12-02T06:31:28.009Z,1.10
2018-12-02T06:33:57.685Z,1.20
2018-12-02T06:36:27.422Z,1.03
2018-12-02T06:38:57.044Z,1.30
2018-12-02T06:41:26.557Z,1.50
2018-12-02T06:43:56.202Z,1.00
2018-12-02T06:46:25.682Z,1.57
2018-12-02T06:48:55.378Z,2.30
2018-12-02T06:51:24.894Z,2.40
2018-12-02T06:53:54.682Z,2.27
2018-12-02T06:56:31.852Z,4.00
2018-12-02T06:59:16.783Z,6.30
2018-12-02T07:01:58.335Z,5.03
2018-12-02T07:04:30.506Z,9.97
2018-12-02T07:07:00.692Z,7.53
2018-12-02T07:09:30.180Z,3.53
2018-12-02T07:11:59.704Z,4.20
2018-12-02T07:14:29.398Z,5.50
2018-12-02T07:16:59.036Z,6.00
2018-12-02T07:19:36.464Z,4.13
2018-12-02T07:22:11.700Z,4.10
2018-12-02T07:24:46.288Z,3.63
2018-12-02T07:27:17.826Z,4.47
2018-12-02T07:29:47.500Z,5.00
2018-12-02T07:32:16.967Z,4.27
2018-12-02T07:34:46.633Z,3.97
2018-12-02T07:37:19.503Z,3.23
2018-12-02T07:40:52.075Z,2.50
2018-12-02T07:43:21.590Z,3.43
2018-12-02T07:45:51.374Z,4.10
2018-12-02T07:48:20.935Z,3.30
2018-12-02T07:50:50.765Z,3.50
2018-12-02T07:53:20.484Z,3.20
2018-12-02T07:55:49.980Z,2.47
2018-12-02T07:58:20.045Z,4.37
2018-12-02T08:00:49.897Z,3.70
2018-12-02T08:03:19.411Z,4.30
2018-12-02T08:05:49.226Z,7.07
2018-12-02T08:08:18.751Z,3.80
2018-12-02T08:10:48.473Z,4.40
2018-12-02T08:13:18.249Z,3.53
2018-12-02T08:15:48.012Z,5.33
2018-12-02T08:18:17.673Z,2.90
2018-12-02T08:20:47.812Z,2.83
2018-12-02T08:23:17.531Z,9.80
2018-12-02T08:25:47.487Z,7.13
2018-12-02T08:28:17.006Z,6.70
2018-12-02T08:30:46.776Z,8.20
2018-12-02T08:33:17.575Z,3.70
2018-12-02T08:35:47.320Z,10.97
2018-12-02T08:38:17.454Z,7.60
2018-12-02T08:40:46.916Z,4.67
2018-12-02T08:43:16.455Z,6.20
2018-12-02T08:45:46.125Z,5.17
2018-12-02T08:48:16.570Z,3.83
2018-12-02T08:50:46.031Z,6.27
2018-12-02T08:53:15.726Z,3.87
2018-12-02T08:55:45.370Z,3.10
2018-12-02T08:58:15.059Z,2.70
2018-12-02T09:00:44.753Z,2.50
2018-12-02T09:03:14.821Z,3.80
2018-12-02T09:05:45.050Z,3.13
2018-12-02T09:08:14.506Z,6.87
2018-12-02T09:10:46.257Z,5.80
2018-12-02T09:13:14.390Z,4.07
2018-12-02T09:15:44.060Z,3.33
2018-12-02T09:18:13.721Z,4.33
2018-12-02T09:20:43.750Z,3.57
2018-12-02T09:23:13.327Z,11.57
2018-12-02T09:25:42.807Z,7.33
2018-12-02T09:28:12.478Z,5.80
2018-12-02T09:30:42.427Z,4.77
2018-12-02T09:33:12.326Z,5.53
2018-12-02T09:35:41.837Z,7.80
2018-12-02T09:38:11.714Z,10.93
2018-12-02T09:40:41.213Z,4.17
2018-12-02T09:43:11.349Z,2.53
2018-12-02T09:45:40.854Z,3.53
2018-12-02T09:48:10.329Z,2.37
2018-12-02T09:50:39.813Z,2.10
2018-12-02T09:53:09.688Z,3.30
2018-12-02T09:55:50.833Z,3.50
2018-12-02T09:58:26.496Z,5.00
2018-12-02T10:00:57.774Z,3.70
2018-12-02T10:03:27.442Z,4.27
2018-12-02T10:05:57.154Z,4.40
2018-12-02T10:08:27.072Z,3.77
2018-12-02T10:10:56.575Z,1.97
2018-12-02T10:13:26.510Z,3.23
2018-12-02T10:15:56.333Z,3.80
2018-12-02T10:18:26.445Z,8.43
2018-12-02T10:20:56.351Z,10.40
2018-12-02T10:23:26.000Z,9.37
2018-12-02T10:25:55.525Z,11.17
2018-12-02T10:28:25.212Z,18.43
2018-12-02T10:30:54.872Z,12.57
2018-12-02T10:33:24.947Z,131.77
2018-12-02T10:35:54.665Z,65.83
2018-12-02T10:38:24.278Z,78.03
2018-12-02T10:40:54.218Z,110.63
2018-12-02T10:43:23.824Z,89.73
2018-12-02T10:45:53.738Z,86.97
2018-12-02T10:48:23.280Z,54.13
2018-12-02T10:50:53.286Z,60.10
2018-12-02T10:53:23.241Z,56.00
2018-12-02T10:55:54.359Z,45.33
2018-12-02T10:58:28.133Z,50.20
2018-12-02T11:01:03.970Z,57.30
2018-12-02T11:03:34.904Z,44.63
2018-12-02T11:06:05.859Z,42.90
2018-12-02T11:08:35.793Z,42.90
2018-12-02T11:11:05.920Z,43.90
2018-12-02T11:13:35.791Z,45.90
2018-12-02T11:16:05.715Z,33.40
2018-12-02T11:18:35.599Z,31.57
2018-12-02T11:21:05.626Z,32.60
2018-12-02T11:23:35.201Z,31.67
2018-12-02T11:26:05.276Z,29.23
2018-12-02T11:28:34.833Z,39.70
2018-12-02T11:31:04.585Z,27.77
2018-12-02T11:33:34.154Z,28.10
2018-12-02T11:36:04.001Z,34.77
2018-12-02T11:38:33.487Z,31.73
2018-12-02T11:41:03.963Z,25.27
2018-12-02T11:43:33.626Z,26.83
2018-12-02T11:46:03.308Z,20.10
2018-12-02T11:48:32.960Z,29.67
2018-12-02T11:53:46.360Z,25.63
2018-12-02T11:56:16.691Z,22.23
2018-12-02T11:58:46.231Z,22.87
2018-12-02T12:01:15.785Z,22.40
2018-12-02T12:03:45.303Z,19.37
2018-12-02T12:06:15.228Z,20.93
2018-12-02T12:08:44.871Z,15.97
2018-12-02T12:11:15.290Z,17.27
2018-12-02T12:13:44.926Z,20.67
2018-12-02T12:16:15.019Z,22.03
2018-12-02T12:18:44.743Z,17.13
2018-12-02T12:21:14.443Z,16.10
2018-12-02T12:23:44.163Z,17.27
2018-12-02T12:26:13.758Z,16.33
2018-12-02T12:28:43.672Z,20.67
2018-12-02T12:31:13.489Z,14.67
2018-12-02T12:33:43.059Z,15.80
2018-12-02T12:36:13.005Z,15.80
2018-12-02T12:38:43.160Z,12.20
2018-12-02T12:41:13.098Z,16.03
2018-12-02T12:43:43.214Z,9.97
2018-12-02T12:46:12.978Z,12.63
2018-12-02T12:48:42.763Z,11.03
2018-12-02T12:51:12.505Z,11.60
2018-12-02T12:53:42.396Z,12.63
2018-12-02T12:56:12.959Z,15.37
2018-12-02T12:58:42.959Z,13.20
2018-12-02T13:01:12.471Z,13.50
2018-12-02T13:03:42.051Z,11.20
2018-12-02T13:06:12.391Z,6.47
2018-12-02T13:08:42.154Z,12.30
2018-12-02T13:11:12.046Z,6.60
2018-12-02T13:13:42.728Z,6.67
2018-12-02T13:16:12.871Z,11.70
2018-12-02T13:18:42.728Z,6.67
2018-12-02T13:21:12.310Z,12.87
2018-12-02T13:23:42.527Z,8.43
2018-12-02T13:26:12.713Z,6.87
2018-12-02T13:28:42.393Z,5.43
2018-12-02T13:31:12.356Z,9.00
2018-12-02T13:34:44.730Z,10.47
2018-12-02T13:37:15.058Z,9.90
2018-12-02T13:39:44.587Z,5.37
2018-12-02T13:42:14.537Z,6.10
2018-12-02T13:44:44.224Z,7.83
2018-12-02T13:47:13.940Z,4.97
2018-12-02T13:49:43.483Z,4.70
2018-12-02T13:52:13.050Z,4.37
2018-12-02T13:54:43.145Z,4.87
2018-12-02T13:57:12.641Z,4.80
2018-12-02T13:59:42.169Z,5.10
2018-12-02T14:02:12.386Z,6.50
2018-12-02T14:04:42.217Z,6.67
2018-12-02T14:07:11.779Z,4.50
2018-12-02T14:09:41.336Z,4.33
2018-12-02T14:12:10.849Z,6.50
2018-12-02T14:14:42.557Z,7.23
2018-12-02T14:17:17.060Z,3.63
2018-12-02T14:19:48.159Z,3.70
2018-12-02T14:22:17.836Z,5.13
2018-12-02T14:24:47.469Z,3.87
2018-12-02T14:27:17.611Z,3.80
2018-12-02T14:29:51.125Z,4.60
2018-12-02T14:32:21.835Z,3.00
2018-12-02T14:34:51.548Z,5.20
2018-12-02T14:37:21.722Z,3.30
2018-12-02T14:39:52.001Z,2.87
2018-12-02T14:42:21.645Z,5.60
2018-12-02T14:44:51.215Z,5.07
2018-12-02T14:47:20.948Z,5.00
2018-12-02T14:49:50.431Z,4.00
2018-12-02T14:52:19.904Z,4.73
2018-12-02T14:54:50.036Z,4.13
2018-12-02T14:57:19.714Z,3.70
2018-12-02T14:59:49.428Z,3.50
2018-12-02T15:02:18.891Z,4.67
2018-12-02T15:04:48.797Z,3.67
2018-12-02T15:07:18.774Z,3.20
2018-12-02T15:09:48.646Z,2.83
2018-12-02T15:12:18.330Z,3.53
2018-12-02T15:14:48.015Z,2.60
2018-12-02T15:17:17.589Z,4.13
2018-12-02T15:19:47.300Z,3.57
2018-12-02T15:22:19.193Z,2.47
2018-12-02T15:24:48.975Z,2.50
2018-12-02T15:27:18.520Z,2.10
2018-12-02T15:29:48.014Z,2.60
2018-12-02T15:32:17.642Z,6.40
2018-12-02T15:34:47.282Z,3.23
2018-12-02T15:37:17.856Z,2.57
2018-12-02T15:39:48.358Z,3.23
2018-12-02T15:42:18.238Z,3.20
2018-12-02T15:44:47.830Z,2.63
2018-12-02T15:47:17.485Z,3.00
2018-12-02T15:49:47.502Z,2.60
2018-12-02T15:52:17.383Z,1.93
2018-12-02T15:54:47.209Z,6.30
2018-12-02T15:57:17.112Z,2.67
2018-12-02T15:59:49.968Z,2.43
2018-12-02T16:02:20.049Z,3.20
2018-12-02T16:04:49.919Z,2.23
2018-12-02T16:07:19.952Z,2.17
2018-12-02T16:09:49.658Z,3.80
2018-12-02T16:12:19.507Z,2.00
2018-12-02T16:14:51.751Z,4.80
2018-12-02T16:17:18.619Z,2.97
2018-12-02T16:19:48.558Z,3.80
2018-12-02T16:22:18.242Z,2.10
2018-12-02T16:24:47.955Z,2.40
2018-12-02T16:27:17.750Z,2.43
2018-12-02T16:29:47.766Z,2.60
2018-12-02T16:32:17.491Z,2.63
2018-12-02T16:34:47.370Z,6.23
2018-12-02T16:37:17.750Z,2.00
2018-12-02T16:39:47.408Z,5.43
2018-12-02T16:42:18.837Z,3.30
2018-12-02T16:44:49.258Z,6.10
2018-12-02T16:47:18.804Z,10.67
2018-12-02T16:49:49.202Z,7.00
2018-12-02T16:52:19.368Z,7.20
2018-12-02T16:54:48.937Z,6.57
2018-12-02T16:57:18.949Z,5.33
2018-12-02T16:59:48.803Z,5.17
2018-12-02T17:02:18.802Z,6.20
2018-12-02T17:04:48.528Z,5.97
2018-12-02T17:07:18.337Z,5.40
2018-12-02T17:09:48.026Z,4.83
2018-12-02T17:12:17.543Z,6.80
2018-12-02T17:14:47.418Z,4.83
2018-12-02T17:17:18.416Z,4.07
2018-12-02T17:19:48.149Z,5.00
2018-12-02T17:22:17.739Z,4.47
2018-12-02T17:24:47.606Z,3.60
2018-12-02T17:27:17.814Z,5.43
2018-12-02T17:29:47.332Z,4.17
2018-12-02T17:32:16.929Z,2.77
2018-12-02T17:34:46.615Z,2.73
2018-12-02T17:37:16.116Z,3.33
2018-12-02T17:39:50.718Z,2.47
2018-12-02T17:42:20.537Z,2.77
2018-12-02T17:44:50.230Z,3.17
2018-12-02T17:47:19.692Z,3.07
2018-12-02T17:49:49.181Z,2.30
2018-12-02T17:52:18.695Z,2.63
2018-12-02T17:54:48.393Z,3.70
2018-12-02T17:57:17.856Z,2.23
2018-12-02T17:59:47.458Z,2.10
2018-12-02T18:02:16.975Z,2.20
2018-12-02T18:04:47.066Z,2.10
2018-12-02T18:07:18.126Z,5.07
2018-12-02T18:09:47.666Z,2.40
2018-12-02T18:12:17.523Z,5.30
2018-12-02T18:14:47.079Z,4.27
2018-12-02T18:17:16.648Z,2.37
2018-12-02T18:19:46.370Z,2.70
2018-12-02T18:22:16.897Z,2.00
2018-12-02T18:24:46.843Z,1.90
2018-12-02T18:27:17.263Z,2.60
2018-12-02T18:29:46.855Z,1.87
2018-12-02T18:32:17.007Z,2.43
2018-12-02T18:34:47.761Z,3.33
2018-12-02T18:37:17.484Z,2.27
2018-12-02T18:39:46.952Z,1.67
2018-12-02T18:42:16.885Z,2.30
2018-12-02T18:44:46.700Z,2.40
2018-12-02T18:47:17.116Z,1.40
2018-12-02T18:49:46.650Z,2.33
2018-12-02T18:52:16.288Z,1.60
2018-12-02T18:54:47.518Z,1.90
2018-12-02T18:57:18.499Z,1.70
2018-12-02T18:59:48.032Z,2.57
2018-12-02T19:02:17.588Z,3.00
2018-12-02T19:04:48.116Z,2.30
2018-12-02T19:07:17.723Z,1.60
2018-12-02T19:09:47.418Z,2.90
2018-12-02T19:12:17.012Z,3.07
2018-12-02T19:14:47.061Z,2.70
2018-12-02T19:17:17.155Z,2.90
2018-12-02T19:19:46.892Z,2.67
2018-12-02T19:22:16.407Z,1.93
2018-12-02T19:24:46.783Z,1.70
2018-12-02T19:27:17.139Z,2.07
2018-12-02T19:29:47.759Z,1.90
2018-12-02T19:32:17.708Z,2.07
2018-12-02T19:34:47.773Z,1.60
2018-12-02T19:37:17.826Z,2.40
2018-12-02T19:39:48.234Z,1.67
2018-12-02T19:42:18.144Z,1.77
2018-12-02T19:44:47.873Z,1.67
2018-12-02T19:47:17.762Z,1.77
2018-12-02T19:49:47.381Z,1.73
2018-12-02T19:52:17.209Z,2.70
2018-12-02T19:54:47.088Z,1.70
2018-12-02T19:57:16.616Z,2.00
2018-12-02T19:59:46.200Z,1.90
2018-12-02T20:02:15.804Z,1.77
2018-12-02T20:04:45.403Z,1.77
2018-12-02T20:07:15.288Z,2.23
2018-12-02T20:09:45.137Z,1.83
2018-12-02T20:12:14.907Z,2.03
2018-12-02T20:14:44.755Z,1.47
2018-12-02T20:17:14.704Z,1.77
2018-12-02T20:19:49.558Z,1.53
2018-12-02T20:22:19.819Z,1.30
2018-12-02T20:24:49.647Z,2.93
2018-12-02T20:27:19.648Z,1.83
2018-12-02T20:29:49.389Z,1.70
2018-12-02T20:32:19.469Z,1.47
2018-12-02T20:34:49.329Z,1.90
2018-12-02T20:37:18.850Z,1.40
2018-12-02T20:39:48.653Z,1.73
2018-12-02T20:42:18.233Z,1.93
2018-12-02T20:44:52.694Z,1.50
2018-12-02T20:47:18.139Z,1.70
2018-12-02T20:49:48.366Z,1.60
2018-12-02T20:52:17.947Z,1.30
2018-12-02T20:54:47.728Z,4.53
2018-12-02T20:57:17.528Z,1.50
2018-12-02T20:59:47.209Z,2.40
2018-12-02T21:02:17.989Z,1.33
2018-12-02T21:04:47.574Z,1.50
2018-12-02T21:07:17.425Z,1.53
2018-12-02T21:09:47.102Z,1.70
2018-12-02T21:12:17.736Z,1.93
2018-12-02T21:14:48.372Z,1.50
2018-12-02T21:17:19.203Z,1.50
2018-12-02T21:19:48.992Z,1.30
2018-12-02T21:22:18.933Z,1.27
2018-12-02T21:24:48.538Z,1.30
2018-12-02T21:27:19.044Z,1.40
2018-12-02T21:29:48.777Z,1.40
2018-12-02T21:32:22.539Z,1.40
2018-12-02T21:34:49.866Z,1.20
2018-12-02T21:37:20.259Z,2.03
2018-12-02T21:39:51.178Z,1.40
2018-12-02T21:42:20.715Z,1.10
2018-12-02T21:44:51.077Z,1.60
2018-12-02T21:47:21.356Z,1.30
2018-12-02T21:49:50.472Z,2.80
2018-12-02T21:52:20.041Z,1.37
2018-12-02T21:54:49.730Z,2.23
2018-12-02T21:57:19.644Z,1.63
2018-12-02T21:59:49.187Z,1.50
2018-12-02T22:02:18.746Z,1.47
2018-12-02T22:04:48.519Z,1.97
2018-12-02T22:07:18.103Z,1.30
2018-12-02T22:09:47.651Z,1.53
2018-12-02T22:12:18.144Z,1.47
2018-12-02T22:14:49.172Z,1.50
2018-12-02T22:17:18.677Z,1.30
2018-12-02T22:19:50.077Z,1.50
2018-12-02T22:22:20.215Z,1.50
2018-12-02T22:24:50.271Z,1.20
2018-12-02T22:27:20.748Z,1.27
2018-12-02T22:29:50.406Z,2.53
2018-12-02T22:32:20.016Z,1.30
2018-12-02T22:34:50.348Z,1.20
2018-12-02T22:37:20.749Z,1.67
2018-12-02T22:39:50.862Z,1.20
2018-12-02T22:42:21.076Z,1.27
2018-12-02T22:44:50.812Z,1.20
2018-12-02T22:47:20.393Z,1.10
2018-12-02T22:49:50.152Z,1.20
2018-12-02T22:52:20.658Z,1.20
2018-12-02T22:54:52.203Z,1.30
2018-12-02T22:57:21.896Z,1.57
2018-12-02T22:59:52.556Z,1.13
2018-12-02T23:02:29.471Z,1.10
2018-12-02T23:04:59.668Z,1.17
2018-12-02T23:07:29.296Z,1.30
2018-12-02T23:09:58.778Z,1.30
2018-12-02T23:12:28.368Z,1.30
2018-12-02T23:14:57.900Z,1.40
2018-12-02T23:17:27.582Z,1.87
2018-12-02T23:19:57.376Z,1.60
2018-12-02T23:22:26.951Z,1.30
2018-12-02T23:24:56.526Z,2.03
2018-12-02T23:27:26.146Z,1.60
2018-12-02T23:29:55.644Z,1.07
2018-12-02T23:32:25.226Z,1.87
2018-12-02T23:34:55.147Z,1.20
2018-12-02T23:37:24.659Z,1.70
2018-12-02T23:39:54.218Z,1.50
2018-12-02T23:42:23.828Z,1.07
2018-12-02T23:44:53.408Z,1.30
2018-12-02T23:47:23.020Z,2.90
2018-12-02T23:49:52.616Z,1.20
2018-12-02T23:52:22.124Z,1.10
2018-12-02T23:54:51.657Z,1.13
2018-12-02T23:57:22.139Z,1.17
2018-12-02T23:59:51.868Z,1.10
